createdAt,value
2022-11-29T00:00:39.580Z,7.45
2022-11-29T00:01:39.675Z,7.44
2022-11-29T00:02:39.922Z,7.42
2022-11-29T00:03:39.835Z,7.42
2022-11-29T00:04:39.944Z,7.42
2022-11-29T00:05:39.996Z,7.44
2022-11-29T00:06:40.069Z,7.44
2022-11-29T00:07:40.169Z,7.47
2022-11-29T00:08:40.235Z,7.45
2022-11-29T00:09:40.318Z,7.47
2022-11-29T00:10:40.378Z,7.47
2022-11-29T00:11:40.477Z,7.48
2022-11-29T00:12:40.540Z,7.44
2022-11-29T00:13:40.619Z,7.45
2022-11-29T00:14:40.726Z,7.47
2022-11-29T00:15:40.783Z,7.45
2022-11-29T00:16:40.983Z,7.45
2022-11-29T00:17:40.948Z,7.47
2022-11-29T00:18:41.017Z,7.44
2022-11-29T00:19:41.132Z,7.44
2022-11-29T00:20:41.200Z,7.42
2022-11-29T00:21:41.297Z,7.39
2022-11-29T00:22:41.363Z,7.44
2022-11-29T00:23:41.461Z,7.44
2022-11-29T00:24:41.791Z,7.42
2022-11-29T00:25:41.624Z,7.44
2022-11-29T00:26:41.697Z,7.42
2022-11-29T00:27:41.777Z,7.45
2022-11-29T00:28:41.858Z,7.44
2022-11-29T00:29:41.974Z,7.42
2022-11-29T00:30:42.075Z,7.42
2022-11-29T00:31:42.133Z,7.39
2022-11-29T00:32:42.201Z,7.39
2022-11-29T00:33:42.294Z,7.39
2022-11-29T00:34:42.766Z,7.39
2022-11-29T00:35:42.467Z,7.37
2022-11-29T00:36:42.539Z,7.41
2022-11-29T00:37:42.626Z,7.39
2022-11-29T00:38:42.711Z,7.39
2022-11-29T00:39:42.810Z,7.42
2022-11-29T00:40:42.879Z,7.42
2022-11-29T00:41:42.972Z,7.44
2022-11-29T00:42:43.042Z,7.45
2022-11-29T00:43:43.135Z,7.45
2022-11-29T00:44:43.459Z,7.48
2022-11-29T00:45:43.372Z,7.48
2022-11-29T00:46:43.374Z,7.47
2022-11-29T00:47:43.464Z,7.47
2022-11-29T00:48:43.539Z,7.48
2022-11-29T00:49:43.625Z,7.47
2022-11-29T00:50:43.691Z,7.50
2022-11-29T00:51:43.786Z,7.45
2022-11-29T00:52:43.861Z,7.37
2022-11-29T00:53:43.927Z,7.36
2022-11-29T00:54:44.260Z,7.39
2022-11-29T00:55:44.080Z,7.37
2022-11-29T00:56:44.139Z,7.36
2022-11-29T00:57:44.217Z,7.37
2022-11-29T00:58:44.324Z,7.39
2022-11-29T00:59:44.421Z,7.42
2022-11-29T01:00:44.484Z,7.45
2022-11-29T01:01:44.647Z,7.47
2022-11-29T01:02:44.709Z,7.47
2022-11-29T01:03:44.745Z,7.50
2022-11-29T01:04:45.170Z,7.47
2022-11-29T01:05:44.893Z,7.47
2022-11-29T01:06:44.967Z,7.47
2022-11-29T01:07:45.117Z,7.48
2022-11-29T01:08:45.133Z,7.47
2022-11-29T01:09:45.228Z,7.47
2022-11-29T01:10:45.292Z,7.47
2022-11-29T01:11:45.386Z,7.48
2022-11-29T01:12:45.468Z,7.47
2022-11-29T01:13:45.532Z,7.47
2022-11-29T01:14:45.946Z,7.45
2022-11-29T01:15:45.714Z,7.44
2022-11-29T01:16:45.844Z,7.45
2022-11-29T01:17:45.900Z,7.47
2022-11-29T01:18:45.994Z,7.45
2022-11-29T01:19:50.601Z,7.42
2022-11-29T01:20:46.154Z,7.42
2022-11-29T01:21:46.224Z,7.39
2022-11-29T01:22:46.317Z,7.39
2022-11-29T01:23:46.392Z,7.39
2022-11-29T01:24:46.730Z,7.39
2022-11-29T01:25:46.560Z,7.37
2022-11-29T01:26:46.654Z,7.34
2022-11-29T01:27:46.712Z,7.33
2022-11-29T01:28:46.802Z,7.33
2022-11-29T01:29:46.893Z,7.36
2022-11-29T01:30:47.004Z,7.36
2022-11-29T01:31:47.015Z,7.34
2022-11-29T01:32:47.110Z,7.34
2022-11-29T01:33:47.185Z,7.33
2022-11-29T01:34:47.370Z,7.34
2022-11-29T01:35:47.345Z,7.33
2022-11-29T01:36:47.443Z,7.36
2022-11-29T01:37:47.513Z,7.36
2022-11-29T01:38:47.607Z,7.34
2022-11-29T01:39:47.782Z,7.34
2022-11-29T01:40:47.762Z,7.33
2022-11-29T01:41:47.833Z,7.32
2022-11-29T01:42:47.926Z,7.33
2022-11-29T01:43:48.004Z,7.34
2022-11-29T01:44:48.112Z,7.34
2022-11-29T01:45:48.231Z,7.34
2022-11-29T01:46:48.295Z,7.36
2022-11-29T01:47:48.347Z,7.39
2022-11-29T01:48:48.440Z,7.36
2022-11-29T01:49:48.527Z,7.36
2022-11-29T01:50:48.601Z,7.41
2022-11-29T01:51:48.671Z,7.39
2022-11-29T01:52:48.764Z,7.41
2022-11-29T01:53:48.845Z,7.37
2022-11-29T01:54:48.971Z,7.42
2022-11-29T01:55:49.027Z,7.41
2022-11-29T01:56:49.079Z,7.41
2022-11-29T01:57:49.151Z,7.41
2022-11-29T01:58:49.247Z,7.41
2022-11-29T01:59:49.332Z,7.39
2022-11-29T02:00:49.395Z,7.39
2022-11-29T02:01:49.467Z,7.39
2022-11-29T02:02:49.598Z,7.41
2022-11-29T02:03:49.612Z,7.42
2022-11-29T02:04:49.721Z,7.42
2022-11-29T02:05:49.786Z,7.42
2022-11-29T02:06:49.880Z,7.42
2022-11-29T02:07:49.979Z,7.42
2022-11-29T02:08:50.030Z,7.39
2022-11-29T02:09:50.110Z,7.39
2022-11-29T02:10:50.173Z,7.41
2022-11-29T02:11:50.247Z,7.41
2022-11-29T02:12:50.341Z,7.41
2022-11-29T02:13:50.411Z,7.42
2022-11-29T02:14:50.516Z,7.39
2022-11-29T02:15:50.612Z,7.37
2022-11-29T02:16:56.289Z,7.39
2022-11-29T02:17:50.763Z,7.41
2022-11-29T02:18:50.842Z,7.37
2022-11-29T02:19:50.931Z,7.39
2022-11-29T02:20:50.993Z,7.41
2022-11-29T02:21:51.063Z,7.39
2022-11-29T02:22:51.144Z,7.41
2022-11-29T02:23:51.216Z,7.39
2022-11-29T02:24:51.335Z,7.37
2022-11-29T02:25:51.398Z,7.41
2022-11-29T02:26:51.492Z,7.41
2022-11-29T02:27:51.560Z,7.41
2022-11-29T02:28:51.654Z,7.39
2022-11-29T02:29:51.746Z,7.39
2022-11-29T02:30:51.844Z,7.42
2022-11-29T02:31:51.883Z,7.41
2022-11-29T02:32:51.979Z,7.41
2022-11-29T02:33:52.049Z,7.41
2022-11-29T02:34:52.158Z,7.42
2022-11-29T02:35:52.218Z,7.44
2022-11-29T02:36:52.311Z,7.44
2022-11-29T02:37:52.384Z,7.45
2022-11-29T02:38:52.477Z,7.42
2022-11-29T02:39:52.575Z,7.41
2022-11-29T02:40:52.647Z,7.39
2022-11-29T02:41:52.738Z,7.42
2022-11-29T02:42:56.754Z,7.45
2022-11-29T02:43:52.886Z,7.44
2022-11-29T02:44:52.982Z,7.47
2022-11-29T02:45:53.061Z,7.45
2022-11-29T02:46:53.120Z,7.48
2022-11-29T02:47:53.191Z,7.48
2022-11-29T02:48:53.290Z,7.45
2022-11-29T02:49:53.371Z,7.47
2022-11-29T02:50:53.444Z,7.45
2022-11-29T02:51:53.503Z,7.47
2022-11-29T02:52:53.597Z,7.45
2022-11-29T02:53:53.666Z,7.47
2022-11-29T02:54:53.780Z,7.48
2022-11-29T02:55:53.810Z,7.48
2022-11-29T02:56:53.903Z,7.48
2022-11-29T02:57:53.984Z,7.48
2022-11-29T02:58:54.064Z,7.48
2022-11-29T02:59:54.150Z,7.51
2022-11-29T03:00:54.228Z,7.51
2022-11-29T03:01:54.351Z,7.48
2022-11-29T03:02:54.436Z,7.50
2022-11-29T03:03:54.486Z,7.51
2022-11-29T03:04:54.591Z,7.50
2022-11-29T03:05:54.653Z,7.50
2022-11-29T03:06:54.736Z,7.52
2022-11-29T03:07:54.829Z,7.54
2022-11-29T03:08:54.887Z,7.50
2022-11-29T03:09:54.968Z,7.50
2022-11-29T03:10:55.035Z,7.50
2022-11-29T03:11:55.107Z,7.50
2022-11-29T03:12:55.185Z,7.52
2022-11-29T03:13:55.255Z,7.57
2022-11-29T03:14:55.364Z,7.54
2022-11-29T03:15:55.484Z,7.55
2022-11-29T03:16:55.524Z,7.55
2022-11-29T03:17:55.631Z,7.58
2022-11-29T03:18:55.687Z,7.55
2022-11-29T03:19:55.769Z,7.55
2022-11-29T03:20:55.840Z,7.54
2022-11-29T03:21:55.908Z,7.57
2022-11-29T03:22:55.999Z,7.57
2022-11-29T03:23:56.074Z,7.58
2022-11-29T03:24:56.182Z,7.58
2022-11-29T03:25:56.246Z,7.60
2022-11-29T03:26:56.341Z,7.58
2022-11-29T03:27:56.419Z,7.60
2022-11-29T03:28:56.517Z,7.60
2022-11-29T03:29:56.596Z,7.58
2022-11-29T03:30:56.679Z,7.60
2022-11-29T03:31:56.732Z,7.62
2022-11-29T03:32:56.825Z,7.62
2022-11-29T03:33:56.894Z,7.63
2022-11-29T03:34:57.711Z,7.62
2022-11-29T03:35:57.074Z,7.66
2022-11-29T03:36:57.166Z,7.66
2022-11-29T03:37:57.238Z,7.67
2022-11-29T03:38:57.331Z,7.69
2022-11-29T03:39:57.417Z,7.70
2022-11-29T03:40:57.482Z,7.69
2022-11-29T03:41:57.565Z,7.70
2022-11-29T03:42:57.633Z,7.73
2022-11-29T03:43:57.705Z,7.71
2022-11-29T03:44:57.813Z,7.71
2022-11-29T03:45:57.957Z,7.74
2022-11-29T03:46:57.976Z,7.71
2022-11-29T03:47:58.045Z,7.71
2022-11-29T03:48:58.139Z,7.73
2022-11-29T03:49:58.224Z,7.74
2022-11-29T03:50:58.310Z,7.76
2022-11-29T03:51:58.373Z,7.79
2022-11-29T03:52:58.466Z,7.81
2022-11-29T03:53:58.537Z,7.81
2022-11-29T03:54:58.644Z,7.81
2022-11-29T03:55:58.708Z,7.82
2022-11-29T03:56:58.790Z,7.85
2022-11-29T03:57:58.868Z,7.84
2022-11-29T03:58:58.962Z,7.82
2022-11-29T03:59:59.028Z,7.86
2022-11-29T04:00:59.107Z,7.88
2022-11-29T04:01:59.216Z,7.85
2022-11-29T04:02:59.301Z,7.85
2022-11-29T04:03:59.338Z,7.85
2022-11-29T04:04:59.433Z,7.85
2022-11-29T04:05:59.495Z,7.82
2022-11-29T04:06:59.579Z,7.84
2022-11-29T04:07:59.693Z,7.84
2022-11-29T04:08:59.743Z,7.86
2022-11-29T04:09:59.832Z,7.86
2022-11-29T04:10:59.901Z,7.88
2022-11-29T04:11:59.960Z,7.86
2022-11-29T04:13:00.061Z,7.89
2022-11-29T04:14:00.117Z,7.91
2022-11-29T04:15:00.233Z,7.88
2022-11-29T04:16:00.298Z,7.91
2022-11-29T04:17:00.350Z,7.91
2022-11-29T04:18:00.440Z,7.91
2022-11-29T04:19:00.491Z,7.92
2022-11-29T04:20:00.603Z,7.91
2022-11-29T04:21:00.685Z,7.89
2022-11-29T04:22:00.769Z,7.91
2022-11-29T04:23:00.861Z,7.91
2022-11-29T04:24:00.943Z,7.91
2022-11-29T04:25:01.023Z,7.92
2022-11-29T04:26:01.102Z,7.95
2022-11-29T04:27:01.220Z,7.95
2022-11-29T04:28:01.291Z,7.94
2022-11-29T04:29:01.399Z,7.92
2022-11-29T04:30:01.504Z,7.92
2022-11-29T04:31:01.638Z,7.94
2022-11-29T04:32:01.632Z,7.92
2022-11-29T04:33:01.741Z,7.95
2022-11-29T04:34:01.801Z,7.94
2022-11-29T04:35:01.921Z,7.95
2022-11-29T04:36:01.995Z,7.94
2022-11-29T04:37:02.081Z,7.94
2022-11-29T04:38:02.159Z,7.96
2022-11-29T04:39:02.257Z,7.99
2022-11-29T04:40:02.381Z,8.00
2022-11-29T04:41:02.444Z,7.99
2022-11-29T04:42:02.502Z,7.99
2022-11-29T04:43:02.611Z,8.00
2022-11-29T04:44:02.688Z,8.02
2022-11-29T04:45:02.804Z,8.02
2022-11-29T04:46:02.944Z,8.03
2022-11-29T04:47:02.950Z,8.02
2022-11-29T04:48:03.044Z,8.03
2022-11-29T04:49:03.113Z,8.00
2022-11-29T04:50:03.213Z,8.02
2022-11-29T04:51:03.279Z,8.04
2022-11-29T04:52:03.356Z,8.04
2022-11-29T04:53:03.447Z,8.04
2022-11-29T04:54:03.529Z,8.04
2022-11-29T04:55:03.650Z,8.06
2022-11-29T04:56:03.690Z,8.06
2022-11-29T04:57:03.794Z,8.09
2022-11-29T04:58:03.877Z,8.07
2022-11-29T04:59:03.945Z,8.10
2022-11-29T05:00:04.037Z,8.12
2022-11-29T05:01:04.141Z,8.07
2022-11-29T05:02:04.248Z,8.09
2022-11-29T05:03:04.358Z,8.07
2022-11-29T05:04:04.362Z,8.09
2022-11-29T05:05:04.486Z,8.10
2022-11-29T05:06:04.541Z,8.09
2022-11-29T05:07:04.635Z,8.09
2022-11-29T05:08:04.717Z,8.09
2022-11-29T05:09:04.823Z,8.09
2022-11-29T05:10:04.919Z,8.09
2022-11-29T05:11:04.990Z,8.09
2022-11-29T05:12:05.071Z,8.10
2022-11-29T05:13:05.180Z,8.09
2022-11-29T05:14:05.258Z,8.09
2022-11-29T05:15:05.391Z,8.10
2022-11-29T05:16:05.473Z,8.12
2022-11-29T05:17:05.521Z,8.12
2022-11-29T05:18:05.585Z,8.09
2022-11-29T05:19:05.676Z,8.13
2022-11-29T05:20:05.770Z,8.12
2022-11-29T05:21:05.826Z,8.13
2022-11-29T05:22:05.906Z,8.14
2022-11-29T05:23:06.013Z,8.17
2022-11-29T05:24:06.093Z,8.14
2022-11-29T05:25:06.213Z,8.17
2022-11-29T05:26:06.289Z,8.14
2022-11-29T05:27:06.367Z,8.18
2022-11-29T05:28:09.996Z,8.17
2022-11-29T05:29:06.534Z,8.17
2022-11-29T05:30:06.668Z,8.20
2022-11-29T05:31:06.720Z,8.18
2022-11-29T05:32:06.813Z,8.18
2022-11-29T05:33:06.895Z,8.21
2022-11-29T05:34:06.965Z,8.21
2022-11-29T05:35:07.060Z,8.21
2022-11-29T05:36:07.134Z,8.20
2022-11-29T05:37:07.218Z,8.21
2022-11-29T05:38:07.288Z,8.20
2022-11-29T05:39:07.369Z,8.18
2022-11-29T05:40:07.454Z,8.18
2022-11-29T05:41:07.497Z,8.21
2022-11-29T05:42:07.596Z,8.21
2022-11-29T05:43:07.682Z,8.24
2022-11-29T05:44:07.762Z,8.22
2022-11-29T05:45:07.845Z,8.24
2022-11-29T05:46:07.988Z,8.24
2022-11-29T05:47:07.987Z,8.24
2022-11-29T05:48:08.093Z,8.21
2022-11-29T05:49:08.158Z,8.22
2022-11-29T05:50:08.280Z,8.22
2022-11-29T05:51:08.320Z,8.22
2022-11-29T05:52:08.427Z,8.22
2022-11-29T05:53:08.490Z,8.24
2022-11-29T05:54:08.580Z,8.22
2022-11-29T05:55:08.677Z,8.21
2022-11-29T05:56:08.761Z,8.22
2022-11-29T05:57:08.841Z,8.24
2022-11-29T05:58:08.933Z,8.24
2022-11-29T05:59:09.008Z,8.21
2022-11-29T06:00:09.137Z,8.21
2022-11-29T06:01:09.179Z,8.22
2022-11-29T06:02:09.329Z,8.22
2022-11-29T06:03:09.413Z,8.22
2022-11-29T06:04:14.550Z,8.22
2022-11-29T06:05:09.574Z,8.24
2022-11-29T06:06:09.640Z,8.24
2022-11-29T06:07:09.718Z,8.24
2022-11-29T06:08:09.823Z,8.27
2022-11-29T06:09:09.900Z,8.27
2022-11-29T06:10:10.019Z,8.25
2022-11-29T06:11:10.047Z,8.27
2022-11-29T06:12:10.158Z,8.28
2022-11-29T06:13:10.221Z,8.27
2022-11-29T06:14:10.329Z,8.25
2022-11-29T06:15:10.422Z,8.25
2022-11-29T06:16:10.539Z,8.25
2022-11-29T06:17:10.556Z,8.28
2022-11-29T06:18:10.662Z,8.27
2022-11-29T06:19:10.732Z,8.27
2022-11-29T06:20:10.851Z,8.28
2022-11-29T06:21:10.893Z,8.28
2022-11-29T06:22:10.962Z,8.25
2022-11-29T06:23:11.042Z,8.25
2022-11-29T06:24:11.140Z,8.25
2022-11-29T06:25:11.539Z,8.24
2022-11-29T06:26:11.288Z,8.24
2022-11-29T06:27:11.405Z,8.22
2022-11-29T06:28:11.446Z,8.22
2022-11-29T06:29:11.528Z,8.22
2022-11-29T06:30:11.636Z,8.25
2022-11-29T06:31:11.728Z,8.27
2022-11-29T06:32:11.768Z,8.27
2022-11-29T06:33:11.827Z,8.24
2022-11-29T06:34:11.931Z,8.22
2022-11-29T06:35:12.023Z,8.24
2022-11-29T06:36:12.128Z,8.27
2022-11-29T06:37:12.171Z,8.27
2022-11-29T06:38:12.276Z,8.27
2022-11-29T06:39:12.354Z,8.27
2022-11-29T06:40:12.472Z,8.27
2022-11-29T06:41:12.624Z,8.25
2022-11-29T06:42:12.604Z,8.28
2022-11-29T06:43:12.676Z,8.27
2022-11-29T06:44:12.785Z,8.28
2022-11-29T06:45:12.877Z,8.28
2022-11-29T06:46:13.028Z,8.31
2022-11-29T06:47:13.030Z,8.29
2022-11-29T06:48:13.099Z,8.31
2022-11-29T06:49:13.180Z,8.31
2022-11-29T06:50:13.316Z,8.32
2022-11-29T06:51:13.358Z,8.29
2022-11-29T06:52:13.451Z,8.29
2022-11-29T06:53:13.533Z,8.29
2022-11-29T06:54:13.629Z,8.27
2022-11-29T06:55:13.709Z,8.28
2022-11-29T06:56:13.751Z,8.27
2022-11-29T06:57:13.824Z,8.27
2022-11-29T06:58:13.896Z,8.28
2022-11-29T06:59:13.971Z,8.27
2022-11-29T07:00:14.068Z,8.28
2022-11-29T07:01:14.157Z,8.24
2022-11-29T07:02:14.249Z,8.25
2022-11-29T07:03:14.255Z,8.28
2022-11-29T07:04:14.325Z,8.27
2022-11-29T07:05:14.406Z,8.25
2022-11-29T07:06:14.478Z,8.27
2022-11-29T07:07:14.556Z,8.27
2022-11-29T07:08:14.638Z,8.29
2022-11-29T07:09:14.680Z,8.27
2022-11-29T07:10:15.162Z,8.27
2022-11-29T07:11:14.851Z,8.27
2022-11-29T07:12:14.930Z,8.27
2022-11-29T07:13:15.004Z,8.25
2022-11-29T07:14:15.073Z,8.28
2022-11-29T07:15:15.176Z,8.25
2022-11-29T07:16:15.266Z,8.27
2022-11-29T07:17:15.324Z,8.27
2022-11-29T07:18:15.400Z,8.27
2022-11-29T07:19:15.456Z,8.28
2022-11-29T07:20:15.552Z,8.28
2022-11-29T07:21:15.594Z,8.27
2022-11-29T07:22:15.668Z,8.29
2022-11-29T07:23:15.727Z,8.29
2022-11-29T07:24:15.795Z,8.28
2022-11-29T07:25:15.884Z,8.28
2022-11-29T07:26:15.963Z,8.28
2022-11-29T07:27:16.038Z,8.28
2022-11-29T07:28:16.141Z,8.28
2022-11-29T07:29:16.217Z,8.28
2022-11-29T07:30:16.347Z,8.25
2022-11-29T07:31:16.459Z,8.25
2022-11-29T07:32:16.470Z,8.27
2022-11-29T07:33:16.546Z,8.25
2022-11-29T07:34:16.655Z,8.25
2022-11-29T07:35:16.751Z,8.27
2022-11-29T07:36:16.822Z,8.25
2022-11-29T07:37:16.902Z,8.25
2022-11-29T07:38:16.998Z,8.28
2022-11-29T07:39:17.076Z,8.27
2022-11-29T07:40:17.208Z,8.27
2022-11-29T07:41:17.277Z,8.28
2022-11-29T07:42:17.330Z,8.29
2022-11-29T07:43:17.409Z,8.28
2022-11-29T07:44:17.508Z,8.29
2022-11-29T07:45:17.599Z,8.29
2022-11-29T07:46:17.774Z,8.29
2022-11-29T07:47:17.769Z,8.34
2022-11-29T07:48:17.879Z,8.31
2022-11-29T07:49:17.979Z,8.32
2022-11-29T07:50:18.071Z,8.34
2022-11-29T07:51:18.110Z,8.32
2022-11-29T07:52:18.213Z,8.32
2022-11-29T07:53:18.292Z,8.36
2022-11-29T07:54:18.382Z,8.34
2022-11-29T07:55:19.245Z,8.36
2022-11-29T07:56:18.551Z,8.37
2022-11-29T07:57:18.631Z,8.37
2022-11-29T07:58:18.759Z,8.37
2022-11-29T07:59:18.793Z,8.39
2022-11-29T08:00:18.924Z,8.37
2022-11-29T08:01:18.986Z,8.39
2022-11-29T08:02:19.075Z,8.37
2022-11-29T08:03:19.156Z,8.37
2022-11-29T08:04:19.236Z,8.39
2022-11-29T08:05:19.562Z,8.39
2022-11-29T08:06:19.396Z,8.40
2022-11-29T08:07:19.523Z,8.39
2022-11-29T08:08:19.565Z,8.39
2022-11-29T08:09:19.647Z,8.42
2022-11-29T08:10:19.766Z,8.40
2022-11-29T08:11:19.807Z,8.40
2022-11-29T08:12:19.913Z,8.42
2022-11-29T08:13:19.996Z,8.40
2022-11-29T08:14:20.089Z,8.40
2022-11-29T08:15:20.179Z,8.36
2022-11-29T08:16:20.288Z,8.39
2022-11-29T08:17:20.318Z,8.37
2022-11-29T08:18:20.402Z,8.37
2022-11-29T08:19:20.467Z,8.42
2022-11-29T08:20:20.549Z,8.37
2022-11-29T08:21:20.610Z,8.39
2022-11-29T08:22:20.676Z,8.42
2022-11-29T08:23:20.751Z,8.42
2022-11-29T08:24:20.830Z,8.43
2022-11-29T08:25:20.921Z,8.43
2022-11-29T08:26:21.008Z,8.43
2022-11-29T08:27:21.080Z,8.46
2022-11-29T08:28:21.177Z,8.46
2022-11-29T08:29:21.252Z,8.46
2022-11-29T08:30:21.372Z,8.45
2022-11-29T08:31:21.445Z,8.45
2022-11-29T08:32:21.507Z,8.47
2022-11-29T08:33:21.557Z,8.47
2022-11-29T08:34:21.667Z,8.47
2022-11-29T08:35:21.862Z,8.47
2022-11-29T08:36:21.819Z,8.50
2022-11-29T08:37:21.895Z,8.52
2022-11-29T08:38:22.008Z,8.52
2022-11-29T08:39:22.086Z,8.54
2022-11-29T08:40:22.167Z,8.50
2022-11-29T08:41:22.208Z,8.55
2022-11-29T08:42:22.298Z,8.54
2022-11-29T08:43:22.354Z,8.55
2022-11-29T08:44:22.439Z,8.54
2022-11-29T08:45:22.591Z,8.55
2022-11-29T08:46:22.777Z,8.58
2022-11-29T08:47:22.668Z,8.60
2022-11-29T08:48:22.799Z,8.63
2022-11-29T08:49:22.839Z,8.60
2022-11-29T08:50:23.041Z,8.61
2022-11-29T08:51:23.012Z,8.64
2022-11-29T08:52:23.094Z,8.64
2022-11-29T08:53:23.170Z,8.64
2022-11-29T08:54:23.299Z,8.63
2022-11-29T08:55:23.364Z,8.65
2022-11-29T08:57:10.217Z,8.67
2022-11-29T08:57:40.530Z,8.68
2022-11-29T08:58:23.587Z,8.68
2022-11-29T08:59:23.665Z,8.68
2022-11-29T09:00:23.819Z,8.70
2022-11-29T09:01:23.919Z,8.68
2022-11-29T09:02:23.936Z,8.68
2022-11-29T09:03:23.961Z,8.71
2022-11-29T09:04:24.194Z,8.70
2022-11-29T09:05:24.200Z,8.73
2022-11-29T09:06:24.244Z,8.73
2022-11-29T09:07:24.392Z,8.71
2022-11-29T09:08:24.415Z,8.73
2022-11-29T09:09:24.509Z,8.68
2022-11-29T09:10:24.576Z,8.70
2022-11-29T09:11:24.616Z,8.70
2022-11-29T09:12:24.687Z,8.71
2022-11-29T09:13:24.754Z,8.73
2022-11-29T09:14:24.851Z,8.73
2022-11-29T09:15:24.944Z,8.73
2022-11-29T09:16:25.074Z,8.71
2022-11-29T09:17:25.071Z,8.71
2022-11-29T09:18:25.197Z,8.75
2022-11-29T09:19:25.242Z,8.76
2022-11-29T09:20:25.345Z,8.78
2022-11-29T09:21:25.381Z,8.76
2022-11-29T09:22:25.467Z,8.78
2022-11-29T09:23:25.541Z,8.78
2022-11-29T09:24:25.644Z,8.79
2022-11-29T09:25:25.748Z,8.78
2022-11-29T09:26:25.814Z,8.76
2022-11-29T09:27:25.888Z,8.78
2022-11-29T09:28:25.956Z,8.78
2022-11-29T09:29:26.034Z,8.73
2022-11-29T09:30:26.154Z,8.75
2022-11-29T09:31:26.233Z,8.76
2022-11-29T09:32:26.300Z,8.73
2022-11-29T09:33:26.382Z,8.70
2022-11-29T09:34:26.450Z,8.71
2022-11-29T09:35:26.539Z,8.70
2022-11-29T09:36:28.955Z,8.68
2022-11-29T09:37:26.694Z,8.67
2022-11-29T09:38:26.788Z,8.68
2022-11-29T09:39:26.860Z,8.68
2022-11-29T09:40:27.011Z,8.68
2022-11-29T09:41:27.009Z,8.68
2022-11-29T09:42:27.120Z,8.68
2022-11-29T09:43:27.194Z,8.70
2022-11-29T09:44:27.264Z,8.70
2022-11-29T09:45:27.350Z,8.70
2022-11-29T09:46:27.414Z,8.71
2022-11-29T09:47:27.529Z,8.70
2022-11-29T09:48:27.591Z,8.71
2022-11-29T09:49:27.703Z,8.73
2022-11-29T09:50:27.799Z,8.73
2022-11-29T09:51:27.872Z,8.71
2022-11-29T09:52:27.946Z,8.71
2022-11-29T09:53:28.055Z,8.71
2022-11-29T09:54:28.136Z,8.70
2022-11-29T09:55:28.223Z,8.70
2022-11-29T09:56:28.268Z,8.73
2022-11-29T09:57:28.335Z,8.73
2022-11-29T09:58:28.411Z,8.73
2022-11-29T09:59:28.486Z,8.75
2022-11-29T10:00:28.578Z,8.76
2022-11-29T10:01:28.740Z,8.76
2022-11-29T10:02:28.920Z,8.78
2022-11-29T10:03:28.830Z,8.80
2022-11-29T10:04:28.914Z,8.85
2022-11-29T10:05:28.998Z,8.88
2022-11-29T10:06:29.041Z,8.89
2022-11-29T10:07:29.193Z,8.93
2022-11-29T10:08:29.173Z,8.93
2022-11-29T10:09:33.548Z,8.91
2022-11-29T10:10:29.339Z,8.91
2022-11-29T10:11:29.423Z,8.89
2022-11-29T10:12:29.495Z,8.91
2022-11-29T10:13:29.564Z,8.89
2022-11-29T10:14:29.646Z,8.88
2022-11-29T10:15:29.733Z,8.89
2022-11-29T10:16:29.852Z,8.93
2022-11-29T10:17:29.855Z,8.93
2022-11-29T10:18:29.930Z,8.96
2022-11-29T10:19:29.999Z,8.94
2022-11-29T10:20:30.100Z,8.97
2022-11-29T10:21:30.153Z,8.96
2022-11-29T10:22:30.294Z,8.96
2022-11-29T10:23:30.307Z,8.94
2022-11-29T10:24:30.377Z,8.94
2022-11-29T10:25:30.461Z,8.94
2022-11-29T10:26:34.942Z,8.91
2022-11-29T10:27:30.596Z,8.93
2022-11-29T10:28:30.681Z,8.94
2022-11-29T10:29:30.755Z,8.94
2022-11-29T10:30:30.895Z,8.93
2022-11-29T10:31:30.887Z,8.96
2022-11-29T10:32:30.974Z,8.96
2022-11-29T10:33:31.060Z,8.97
2022-11-29T10:34:31.132Z,8.98
2022-11-29T10:35:31.254Z,9.01
2022-11-29T10:36:31.296Z,9.01
2022-11-29T10:37:31.380Z,9.04
2022-11-29T10:38:32.042Z,9.06
2022-11-29T10:39:31.530Z,9.04
2022-11-29T10:40:31.614Z,9.06
2022-11-29T10:41:31.658Z,9.12
2022-11-29T10:42:31.732Z,9.13
2022-11-29T10:43:31.808Z,9.15
2022-11-29T10:44:31.888Z,9.12
2022-11-29T10:45:31.982Z,9.13
2022-11-29T10:46:32.141Z,9.15
2022-11-29T10:47:32.135Z,9.16
2022-11-29T10:48:32.209Z,9.15
2022-11-29T10:49:32.289Z,9.16
2022-11-29T10:50:32.379Z,9.16
2022-11-29T10:51:32.436Z,9.19
2022-11-29T10:52:32.520Z,9.17
2022-11-29T10:53:32.599Z,9.19
2022-11-29T10:54:32.680Z,9.22
2022-11-29T10:55:32.772Z,9.23
2022-11-29T10:56:32.839Z,9.24
2022-11-29T10:57:32.918Z,9.26
2022-11-29T10:58:33.000Z,9.30
2022-11-29T10:59:33.091Z,9.35
2022-11-29T11:00:33.189Z,9.38
2022-11-29T11:01:33.329Z,9.40
2022-11-29T11:02:33.310Z,9.37
2022-11-29T11:03:33.381Z,9.40
2022-11-29T11:04:33.467Z,9.40
2022-11-29T11:05:33.599Z,9.45
2022-11-29T11:06:33.643Z,9.48
2022-11-29T11:07:33.742Z,9.48
2022-11-29T11:08:33.795Z,9.50
2022-11-29T11:09:33.871Z,9.55
2022-11-29T11:10:33.959Z,9.56
2022-11-29T11:11:34.004Z,9.58
2022-11-29T11:12:34.072Z,9.62
2022-11-29T11:13:34.145Z,9.65
2022-11-29T11:14:34.241Z,9.65
2022-11-29T11:15:34.322Z,9.67
2022-11-29T11:16:37.554Z,9.73
2022-11-29T11:17:34.468Z,9.73
2022-11-29T11:18:34.540Z,9.74
2022-11-29T11:19:34.616Z,9.75
2022-11-29T11:20:34.701Z,9.75
2022-11-29T11:21:34.742Z,9.75
2022-11-29T11:22:34.815Z,9.80
2022-11-29T11:23:39.869Z,9.81
2022-11-29T11:24:34.978Z,9.83
2022-11-29T11:25:35.077Z,9.86
2022-11-29T11:26:35.157Z,9.88
2022-11-29T11:27:35.230Z,9.89
2022-11-29T11:28:35.350Z,9.89
2022-11-29T11:29:35.443Z,9.92
2022-11-29T11:30:35.577Z,9.93
2022-11-29T11:31:35.595Z,9.96
2022-11-29T11:32:35.663Z,9.92
2022-11-29T11:33:35.731Z,9.95
2022-11-29T11:34:35.804Z,9.98
2022-11-29T11:35:35.889Z,9.91
2022-11-29T11:36:35.958Z,9.86
2022-11-29T11:37:36.031Z,9.85
2022-11-29T11:38:36.140Z,9.85
2022-11-29T11:39:36.215Z,9.85
2022-11-29T11:40:36.357Z,9.81
2022-11-29T11:41:36.371Z,9.83
2022-11-29T11:42:36.481Z,9.83
2022-11-29T11:43:36.560Z,9.88
2022-11-29T11:44:51.987Z,9.89
2022-11-29T11:45:36.749Z,9.89
2022-11-29T11:46:36.857Z,9.92
2022-11-29T11:47:36.875Z,9.95
2022-11-29T11:48:36.961Z,9.93
2022-11-29T11:49:37.034Z,9.93
2022-11-29T11:50:37.120Z,9.92
2022-11-29T11:51:37.166Z,9.95
2022-11-29T11:52:40.730Z,9.96
2022-11-29T11:53:37.304Z,9.92
2022-11-29T11:54:37.375Z,9.96
2022-11-29T11:55:37.464Z,9.98
2022-11-29T11:56:37.541Z,10.02
2022-11-29T11:57:37.619Z,10.06
2022-11-29T11:58:37.709Z,10.06
2022-11-29T11:59:37.782Z,10.07
2022-11-29T12:01:02.309Z,10.06
2022-11-29T12:01:37.946Z,10.09
2022-11-29T12:02:38.116Z,10.07
2022-11-29T12:03:38.155Z,10.02
2022-11-29T12:04:38.193Z,9.98
2022-11-29T12:05:40.598Z,9.91
2022-11-29T12:06:38.361Z,9.89
2022-11-29T12:08:06.649Z,9.88
2022-11-29T12:08:38.557Z,9.86
2022-11-29T12:09:38.567Z,9.91
2022-11-29T12:10:38.662Z,9.89
2022-11-29T12:11:38.698Z,9.88
2022-11-29T12:12:38.782Z,9.83
2022-11-29T12:13:38.859Z,9.81
2022-11-29T12:14:38.940Z,9.81
2022-11-29T12:15:39.080Z,9.78
2022-11-29T12:16:39.097Z,9.77
2022-11-29T12:17:39.169Z,9.77
2022-11-29T12:18:39.272Z,9.74
2022-11-29T12:19:39.353Z,9.73
2022-11-29T12:20:39.439Z,9.71
2022-11-29T12:21:39.477Z,9.70
2022-11-29T12:22:42.651Z,9.67
2022-11-29T12:23:39.658Z,9.68
2022-11-29T12:24:39.731Z,9.68
2022-11-29T12:25:39.850Z,9.67
2022-11-29T12:26:57.621Z,9.65
2022-11-29T12:27:39.955Z,9.65
2022-11-29T12:28:40.033Z,9.70
2022-11-29T12:29:40.106Z,9.71
2022-11-29T12:30:40.226Z,9.73
2022-11-29T12:31:40.265Z,9.73
2022-11-29T12:32:40.334Z,9.73
2022-11-29T12:33:40.411Z,9.71
2022-11-29T12:34:43.223Z,9.71
2022-11-29T12:35:40.589Z,9.70
2022-11-29T12:36:40.658Z,9.70
2022-11-29T12:37:40.731Z,9.67
2022-11-29T12:38:40.801Z,9.68
2022-11-29T12:39:40.878Z,9.68
2022-11-29T12:40:40.961Z,9.68
2022-11-29T12:41:41.006Z,9.68
2022-11-29T12:42:41.081Z,9.71
2022-11-29T12:43:41.130Z,9.71
2022-11-29T12:44:41.247Z,9.70
2022-11-29T12:45:41.337Z,9.71
2022-11-29T12:46:41.456Z,9.70
2022-11-29T12:47:41.492Z,9.68
2022-11-29T12:48:41.555Z,9.68
2022-11-29T12:49:41.638Z,9.71
2022-11-29T12:50:41.745Z,9.70
2022-11-29T12:51:41.781Z,9.70
2022-11-29T12:52:41.895Z,9.70
2022-11-29T12:53:41.956Z,9.70
2022-11-29T12:54:42.138Z,9.67
2022-11-29T12:55:42.105Z,9.70
2022-11-29T12:56:42.180Z,9.67
2022-11-29T12:57:42.245Z,9.68
2022-11-29T12:58:45.791Z,9.67
2022-11-29T12:59:42.413Z,9.63
2022-11-29T13:00:42.489Z,9.62
2022-11-29T13:01:42.609Z,9.62
2022-11-29T13:02:42.725Z,9.59
2022-11-29T13:03:42.719Z,9.56
2022-11-29T13:04:42.947Z,9.58
2022-11-29T13:05:42.894Z,9.58
2022-11-29T13:06:42.974Z,9.59
2022-11-29T13:07:43.108Z,9.60
2022-11-29T13:08:43.133Z,9.60
2022-11-29T13:09:43.393Z,9.60
2022-11-29T13:10:43.305Z,9.58
2022-11-29T13:11:43.347Z,9.55
2022-11-29T13:12:43.415Z,9.53
2022-11-29T13:13:43.489Z,9.53
2022-11-29T13:14:44.186Z,9.56
2022-11-29T13:15:43.685Z,9.53
2022-11-29T13:16:43.755Z,9.55
2022-11-29T13:17:43.811Z,9.55
2022-11-29T13:18:43.919Z,9.53
2022-11-29T13:19:44.005Z,9.52